Cote D IVoirian Star — A8SL4 — position and weather

sailwx.info

Track history (hours):
 
Tides and Currents Weather Stations Pressure Air Temp Water Temp Dewpoint Dewpoint Depression Visibility Wind Speed Wind Dir Waves Ship Positions

Cote D IVoirian Star

Last reported at 2016-May-24 19:30 UTC. Time now 2016-May-26 16:32 UTC.
Position N 30°28' W 015°02'.

Length 185 m; draft 8.3 m.

Type: Cargo ship. MMSI: 636014241.

Date/timePositionNaut miles runAvg speedWind from/ knotsBaromVisibWave heightAir tempDewpointWater temp
2016-May-24 19:30N 30°28' W 015°02'1818.4
2016-May-24 18:32N 30°11' W 015°08'5718.9
2016-May-24 15:32N 29°16' W 015°26'1919.0
2016-May-24 14:33N 28°59' W 015°32'1919.2
2016-May-24 13:33N 28°40' W 015°38'1818.5
2016-May-24 12:34N 28°24' W 015°49'3918.6
2016-May-24 10:27N 27°53' W 016°15'67818.7
2016-May-22 22:08N 16°40' W 017°43'1118.2
2016-May-22 21:33N 16°29' W 017°43'5518.4
2016-May-22 18:33N 15°34' W 017°40'1818.5
2016-May-22 17:33N 15°16' W 017°39'2418.6
2016-May-22 16:15N 14°51' W 017°37'1217.4
2016-May-22 15:33N 14°40' W 017°33'8 8.1
2016-May-22 14:33N 14°41' W 017°25'1 1.1
2016-May-22 13:29N 14°41' W 017°26'0 0.0
2016-May-22 12:26N 14°41' W 017°26'0 0.0
2016-May-22 11:33N 14°41' W 017°26'0 0.0
2016-May-22 10:33N 14°41' W 017°26'0 0.0
2016-May-22 09:33N 14°41' W 017°26'0 0.0
2016-May-22 08:33N 14°41' W 017°26'3 3.1
2016-May-22 07:33N 14°40' W 017°23'2 2.4
2016-May-22 06:34N 14°38' W 017°23'1615.9
2016-May-22 05:32N 14°22' W 017°23'2018.1
2016-May-22 04:26N 14°02' W 017°25'1918.2
2016-May-22 03:25N 13°43' W 017°26'5117.8
2016-May-22 00:33N 12°53' W 017°28'6017.8
2016-May-21 21:10N 11°53' W 017°22'  
2016-May-19 13:32N 05°12' W 003°59'7 1.2
2016-May-19 07:26N 05°19' W 004°01'2 0.1
2016-May-18 10:32N 05°17' W 004°02'5 5.1
2016-May-18 09:33N 05°13' W 003°58'1 1.0
2016-May-18 08:09N 05°12' W 003°58'  
Track history (hours):
 
Tides and Currents Weather Stations Pressure Air Temp Water Temp Dewpoint Dewpoint Depression Visibility Wind Speed Wind Dir Waves Ship Positions

Cote D IVoirian Star

Last reported at 2016-May-24 19:30 UTC. Time now 2016-May-26 16:32 UTC.
Position N 30°28' W 015°02'.

Length 185 m; draft 8.3 m.

Type: Cargo ship. MMSI: 636014241.

Date/timePositionNaut miles runAvg speedWind from/ knotsBaromVisibWave heightAir tempDewpointWater temp
2016-May-24 19:30N 30°28' W 015°02'1818.4
2016-May-24 18:32N 30°11' W 015°08'5718.9
2016-May-24 15:32N 29°16' W 015°26'1919.0
2016-May-24 14:33N 28°59' W 015°32'1919.2
2016-May-24 13:33N 28°40' W 015°38'1818.5
2016-May-24 12:34N 28°24' W 015°49'3918.6
2016-May-24 10:27N 27°53' W 016°15'67818.7
2016-May-22 22:08N 16°40' W 017°43'1118.2
2016-May-22 21:33N 16°29' W 017°43'5518.4
2016-May-22 18:33N 15°34' W 017°40'1818.5
2016-May-22 17:33N 15°16' W 017°39'2418.6
2016-May-22 16:15N 14°51' W 017°37'1217.4
2016-May-22 15:33N 14°40' W 017°33'8 8.1
2016-May-22 14:33N 14°41' W 017°25'1 1.1
2016-May-22 13:29N 14°41' W 017°26'0 0.0
2016-May-22 12:26N 14°41' W 017°26'0 0.0
2016-May-22 11:33N 14°41' W 017°26'0 0.0
2016-May-22 10:33N 14°41' W 017°26'0 0.0
2016-May-22 09:33N 14°41' W 017°26'0 0.0
2016-May-22 08:33N 14°41' W 017°26'3 3.1
2016-May-22 07:33N 14°40' W 017°23'2 2.4
2016-May-22 06:34N 14°38' W 017°23'1615.9
2016-May-22 05:32N 14°22' W 017°23'2018.1
2016-May-22 04:26N 14°02' W 017°25'1918.2
2016-May-22 03:25N 13°43' W 017°26'5117.8
2016-May-22 00:33N 12°53' W 017°28'6017.8
2016-May-21 21:10N 11°53' W 017°22'  
2016-May-19 13:32N 05°12' W 003°59'7 1.2
2016-May-19 07:26N 05°19' W 004°01'2 0.1
2016-May-18 10:32N 05°17' W 004°02'5 5.1
2016-May-18 09:33N 05°13' W 003°58'1 1.0
2016-May-18 08:09N 05°12' W 003°58'  

Dump ship's entire track history